Time;durP1;ratioP1;P1;durP2;ratioP2;P2;SDS_P1;SDS_P2;PMS_P1;PMS_P2;Temp;Humidity;BMP_temperature;BMP_pressure;BME280_temperature;BME280_humidity;BME280_pressure;Samples;Min_cycle;Max_cycle;Signal;HPM_P1;HPM_P2
2023/01/29 00:04:21;;;;;;;3.78;3.40;;;;;;;-2.79;99.98;100822.28;4935802;29;20559;-80
2023/01/29 00:06:47;;;;;;;4.38;3.75;;;;;;;-2.73;100.00;100803.72;4918816;29;20031;-78
2023/01/29 00:09:13;;;;;;;5.03;4.43;;;;;;;-2.89;99.99;100783.66;4937018;29;20042;-78
2023/01/29 00:11:39;;;;;;;5.78;3.90;;;;;;;-2.76;99.44;100804.72;4918104;29;20031;-78
2023/01/29 00:14:05;;;;;;;3.63;3.33;;;;;;;-2.88;100.00;100774.91;4934924;29;20048;-77
2023/01/29 00:16:31;;;;;;;4.82;4.32;;;;;;;-2.84;99.83;100778.19;4917262;29;20027;-78
2023/01/29 00:18:57;;;;;;;5.50;4.20;;;;;;;-2.68;100.00;100793.88;4917674;29;20484;-77
2023/01/29 00:21:22;;;;;;;4.57;4.17;;;;;;;-2.66;99.48;100789.44;4934830;29;20039;-77
2023/01/29 00:23:49;;;;;;;5.03;3.97;;;;;;;-2.59;99.80;100786.47;4935392;29;20055;-76
2023/01/29 00:26:15;;;;;;;4.10;3.70;;;;;;;-2.71;99.51;100778.41;4937103;29;20049;-77
2023/01/29 00:28:41;;;;;;;4.22;3.83;;;;;;;-2.62;99.70;100776.16;4917259;29;20063;-77
2023/01/29 00:31:08;;;;;;;4.30;3.90;;;;;;;-2.54;99.51;100781.84;4917276;29;20519;-79
2023/01/29 00:33:34;;;;;;;7.20;4.25;;;;;;;-2.56;99.92;100762.00;4934255;29;20032;-78
2023/01/29 00:36:08;;;;;;;4.68;4.15;;;;;;;-2.61;99.46;100746.56;4901532;29;20415;-77
2023/01/29 00:38:34;;;;;;;5.90;4.22;;;;;;;-2.44;99.27;100769.16;4902707;29;20083;-77
2023/01/29 00:46:35;;;;;;;4.97;4.40;;;;;;;-2.43;98.97;100760.44;4917637;29;20055;-76
2023/01/29 00:49:01;;;;;;;5.10;4.13;;;;;;;-2.43;99.79;100755.22;4903212;29;20480;-77
2023/01/29 00:51:27;;;;;;;4.47;3.80;;;;;;;-2.45;100.00;100745.78;4940569;29;20035;-79
2023/01/29 00:53:57;;;;;;;6.70;4.10;;;;;;;-2.48;99.91;100735.50;4919189;29;20737;-77
2023/01/29 00:56:26;;;;;;;4.05;3.53;;;;;;;-2.37;99.57;100744.44;4916828;29;20043;-75
2023/01/29 00:58:51;;;;;;;5.53;3.88;;;;;;;-2.35;99.40;100747.81;4934376;29;20038;-75
2023/01/29 01:03:04;;;;;;;4.37;3.97;;;;;;;-2.28;99.08;100754.41;4934429;29;20031;-75
2023/01/29 01:04:03;;;;;;;5.15;4.65;;;;;;;-2.27;99.20;100740.44;4934333;29;20138;-75
2023/01/29 01:06:28;;;;;;;4.07;3.73;;;;;;;-2.17;98.89;100740.78;4936835;29;20120;-76
2023/01/29 01:11:38;;;;;;;4.60;3.90;;;;;;;-2.30;99.11;100709.31;4920328;29;20028;-78
2023/01/29 01:14:06;;;;;;;4.00;3.70;;;;;;;-2.50;99.14;100680.84;4920161;29;20099;-75
2023/01/29 01:16:32;;;;;;;8.50;4.40;;;;;;;-2.08;98.91;100732.47;4904988;29;20023;-74
2023/01/29 01:18:57;;;;;;;4.83;4.00;;;;;;;-2.10;99.21;100739.53;4939700;29;20031;-76
2023/01/29 01:21:23;;;;;;;4.23;3.83;;;;;;;-2.21;99.20;100719.25;4937939;29;20031;-75
2023/01/29 01:23:50;;;;;;;3.73;3.33;;;;;;;-2.08;98.86;100737.69;4937922;29;20031;-75
2023/01/29 01:26:19;;;;;;;7.43;3.90;;;;;;;-2.08;98.56;100731.63;4920684;29;20074;-76
2023/01/29 01:28:44;;;;;;;3.88;3.50;;;;;;;-2.09;98.75;100724.72;4937899;29;20331;-75
2023/01/29 01:31:12;;;;;;;5.53;4.33;;;;;;;-2.05;98.80;100723.63;4938372;29;20040;-74
2023/01/29 01:33:39;;;;;;;5.40;4.30;;;;;;;-2.06;98.84;100722.78;4937865;29;20019;-75
2023/01/29 01:36:08;;;;;;;4.35;3.70;;;;;;;-2.17;98.63;100703.41;4937853;29;20095;-76
2023/01/29 01:38:43;;;;;;;4.28;3.88;;;;;;;-2.08;98.49;100719.41;4937709;29;20031;-73
2023/01/29 01:41:14;;;;;;;4.43;4.03;;;;;;;-2.11;98.53;100718.75;4937689;29;20092;-74
2023/01/29 01:43:58;;;;;;;5.25;4.28;;;;;;;-2.10;99.16;100715.19;4937528;29;20031;-74
2023/01/29 01:46:30;;;;;;;5.28;4.07;;;;;;;-2.19;99.54;100701.75;4920527;29;20055;-77
2023/01/29 01:49:20;;;;;;;5.45;4.50;;;;;;;-2.16;100.00;100705.94;4936705;29;20061;-76
2023/01/29 01:51:50;;;;;;;4.20;3.80;;;;;;;-2.10;99.83;100699.53;4937367;29;20421;-75
2023/01/29 01:54:29;;;;;;;5.80;4.05;;;;;;;-2.15;100.00;100710.25;4920025;29;20158;-75
2023/01/29 01:57:08;;;;;;;5.10;4.60;;;;;;;-2.11;100.00;100718.75;4939480;29;20039;-75
2023/01/29 01:59:37;;;;;;;6.93;4.18;;;;;;;-2.17;100.00;100714.69;4939088;29;20039;-73
2023/01/29 02:10:23;;;;;;;5.97;4.50;;;;;;;-2.19;100.00;100703.50;4925548;29;20067;-77
2023/01/29 02:12:50;;;;;;;6.33;5.10;;;;;;;-2.22;100.00;100707.13;4947493;29;20027;-76
2023/01/29 02:15:16;;;;;;;5.28;4.78;;;;;;;-2.30;100.00;100695.44;4930614;29;20039;-78
2023/01/29 02:17:46;;;;;;;7.22;5.00;;;;;;;-2.20;100.00;100699.22;4929586;29;20038;-75
2023/01/29 02:20:33;;;;;;;5.50;4.85;;;;;;;-2.27;100.00;100677.84;4913229;29;20027;-74
2023/01/29 02:23:04;;;;;;;5.47;4.82;;;;;;;-2.28;100.00;100686.59;4937002;29;20098;-78
2023/01/29 02:25:45;;;;;;;6.70;4.70;;;;;;;-2.30;100.00;100682.38;4919705;29;20035;-78
2023/01/29 02:28:29;;;;;;;6.47;4.70;;;;;;;-2.31;100.00;100686.75;4919801;29;20034;-74
2023/01/29 02:31:04;;;;;;;5.53;4.80;;;;;;;-2.32;100.00;100682.44;4937524;29;20126;-74
2023/01/29 02:33:53;;;;;;;6.63;4.93;;;;;;;-2.33;100.00;100678.16;4936361;29;20099;-74
2023/01/29 02:36:24;;;;;;;5.30;4.50;;;;;;;-2.42;100.00;100668.22;4885201;29;20139;-74
2023/01/29 02:39:32;;;;;;;8.43;5.75;;;;;;;-2.42;100.00;100677.81;4903191;29;20999;-75
2023/01/29 02:42:10;;;;;;;6.30;4.75;;;;;;;-2.39;100.00;100672.44;4897851;29;20028;-75
2023/01/29 02:44:38;;;;;;;8.00;4.85;;;;;;;-2.37;100.00;100666.19;4918883;29;20365;-74
2023/01/29 02:47:20;;;;;;;6.57;4.82;;;;;;;-2.34;100.00;100663.44;4935823;29;20044;-76
2023/01/29 02:49:49;;;;;;;8.15;5.82;;;;;;;-2.46;100.00;100632.81;4918596;29;20024;-74
2023/01/29 02:52:37;;;;;;;5.85;3.97;;;;;;;-2.27;100.00;100656.97;4918649;29;20527;-73
2023/01/29 02:55:14;;;;;;;;;;;;;;;-2.30;100.00;100661.53;4903130;29;20059;-70
2023/01/29 02:57:43;;;;;;;5.10;4.60;;;;;;;-2.37;100.00;100634.91;4903129;29;19914;-71
2023/01/29 03:00:19;;;;;;;7.32;4.97;;;;;;;-2.31;100.00;100625.94;4919803;29;20035;-72
2023/01/29 03:03:02;;;;;;;6.50;4.85;;;;;;;-2.26;100.00;100632.56;4904414;29;20094;-71
2023/01/29 03:05:42;;;;;;;5.80;5.07;;;;;;;-2.30;100.00;100615.41;4920418;29;20035;-73
2023/01/29 03:08:14;;;;;;;6.63;5.07;;;;;;;-2.29;100.00;100605.81;4919737;29;20062;-71
2023/01/29 03:10:46;;;;;;;6.00;5.40;;;;;;;-2.06;100.00;100628.00;4918805;29;20038;-72
2023/01/29 03:13:18;;;;;;;8.95;5.47;;;;;;;-2.11;100.00;100606.53;4918762;29;20035;-73
2023/01/29 03:16:00;;;;;;;5.07;4.53;;;;;;;-2.12;100.00;100591.81;4918515;29;20587;-71
2023/01/29 03:18:30;;;;;;;7.82;5.60;;;;;;;-1.96;100.00;100613.53;4902663;29;20268;-71
2023/01/29 03:21:48;;;;;;;5.32;4.75;;;;;;;-1.91;100.00;100607.13;4902648;29;20384;-72
2023/01/29 03:32:15;;;;;;;6.45;5.50;;;;;;;-1.96;100.00;100579.59;4936351;29;20487;-73
2023/01/29 03:34:50;;;;;;;6.57;5.60;;;;;;;-1.91;100.00;100583.63;4918157;29;20467;-71
2023/01/29 03:37:38;;;;;;;11.45;5.70;;;;;;;-1.85;100.00;100585.03;4902307;29;20032;-73
2023/01/29 03:40:05;;;;;;;12.60;5.85;;;;;;;-1.95;100.00;100576.06;4918410;29;20036;-73
2023/01/29 03:42:49;;;;;;;8.80;6.05;;;;;;;-1.94;100.00;100559.47;4918388;29;20024;-73
2023/01/29 03:45:41;;;;;;;7.38;5.38;;;;;;;-1.81;100.00;100572.66;4902160;29;20126;-72
2023/01/29 03:48:36;;;;;;;10.02;6.65;;;;;;;-1.83;100.00;100551.84;4935666;29;20031;-71
2023/01/29 03:51:14;;;;;;;8.30;6.07;;;;;;;-1.79;100.00;100537.69;4883784;29;20028;-71
2023/01/29 03:53:50;;;;;;;9.07;6.32;;;;;;;-1.81;100.00;100541.31;4917689;29;20086;-73
2023/01/29 03:56:38;;;;;;;7.10;6.20;;;;;;;-1.94;100.00;100518.56;4917769;29;20487;-72
2023/01/29 03:59:29;;;;;;;10.47;6.57;;;;;;;-1.77;100.00;100538.44;4917583;29;20032;-72
2023/01/29 04:01:59;;;;;;;9.57;7.13;;;;;;;-1.81;100.00;100513.44;4901950;29;20350;-71
2023/01/29 04:04:35;;;;;;;8.37;7.03;;;;;;;-1.77;100.00;100520.16;4934630;29;20090;-73
2023/01/29 04:07:10;;;;;;;12.55;7.45;;;;;;;-1.73;100.00;100526.06;4901492;29;20295;-71
2023/01/29 04:09:42;;;;;;;10.30;6.90;;;;;;;-1.59;100.00;100533.91;4935494;29;20028;-72
2023/01/29 04:12:12;;;;;;;12.32;8.00;;;;;;;-1.63;100.00;100521.97;4934664;29;20260;-72
2023/01/29 04:14:38;;;;;;;11.50;7.27;;;;;;;-1.59;100.00;100529.53;4917427;29;20051;-71
2023/01/29 04:17:38;;;;;;;8.50;6.22;;;;;;;-1.56;100.00;100531.13;4921185;29;20315;-71
2023/01/29 04:20:05;;;;;;;10.17;7.10;;;;;;;-1.56;100.00;100528.50;4901613;29;20094;-71
2023/01/29 04:22:36;;;;;;;9.63;6.40;;;;;;;-1.53;100.00;100533.53;4901689;29;20274;-71
2023/01/29 04:25:14;;;;;;;10.23;7.43;;;;;;;-1.62;100.00;100521.88;4917181;29;20676;-72
2023/01/29 04:27:58;;;;;;;15.65;8.25;;;;;;;-1.58;100.00;100526.00;4901075;29;20291;-72
2023/01/29 04:30:43;;;;;;;13.83;7.27;;;;;;;-1.57;100.00;100512.00;4933357;29;20535;-70
2023/01/29 04:33:11;;;;;;;8.80;7.28;;;;;;;-1.62;100.00;100507.97;4934708;29;20256;-70
2023/01/29 04:36:10;;;;;;;8.77;6.85;;;;;;;-1.65;100.00;100498.56;4934663;29;20388;-70
2023/01/29 04:39:16;;;;;;;10.57;6.83;;;;;;;-1.54;100.00;100507.53;4901488;29;20036;-71
2023/01/29 04:41:56;;;;;;;14.63;7.50;;;;;;;-1.62;100.00;100494.94;4906223;29;20275;-70
2023/01/29 04:44:27;;;;;;;11.33;8.23;;;;;;;-1.52;100.00;100503.03;4907866;29;20779;-70
2023/01/29 04:47:28;;;;;;;10.20;6.67;;;;;;;-1.51;100.00;100496.88;4941518;29;20342;-71
2023/01/29 04:50:11;;;;;;;9.63;6.87;;;;;;;-1.43;100.00;100494.69;4941054;29;20731;-69
2023/01/29 04:52:43;;;;;;;11.03;7.10;;;;;;;-1.41;100.00;100492.81;4941033;29;20314;-69
2023/01/29 04:55:34;;;;;;;9.80;6.70;;;;;;;-1.40;100.00;100481.44;4940632;29;20287;-71
2023/01/29 04:58:27;;;;;;;14.10;7.63;;;;;;;-1.38;100.00;100490.84;4933058;29;20287;-70
2023/01/29 05:00:53;;;;;;;15.67;7.53;;;;;;;-1.35;100.00;100489.81;4921099;29;20279;-69
2023/01/29 05:03:23;;;;;;;10.67;7.37;;;;;;;-1.37;100.00;100476.00;4941781;29;20259;-71
2023/01/29 05:05:50;;;;;;;13.68;7.88;;;;;;;-1.36;100.00;100490.75;4924133;29;20386;-71
2023/01/29 05:08:19;;;;;;;13.00;7.45;;;;;;;-1.32;100.00;100506.16;4940895;29;20032;-70
2023/01/29 05:10:48;;;;;;;14.50;7.83;;;;;;;-1.26;100.00;100494.47;4941518;29;20097;-69
2023/01/29 05:13:14;;;;;;;10.02;6.55;;;;;;;-1.16;100.00;100499.97;4943618;29;20272;-70
2023/01/29 05:15:55;;;;;;;13.70;7.47;;;;;;;-1.36;100.00;100457.63;4945942;29;20038;-70
2023/01/29 05:18:46;;;;;;;10.17;7.43;;;;;;;-1.28;100.00;100470.22;4945698;29;20267;-71
2023/01/29 05:21:12;;;;;;;8.23;6.37;;;;;;;-1.14;100.00;100496.34;4945517;29;20287;-71
2023/01/29 05:23:37;;;;;;;9.57;6.00;;;;;;;-1.03;100.00;100498.28;4947672;29;20118;-71
2023/01/29 05:26:03;;;;;;;10.47;6.60;;;;;;;-0.97;100.00;100501.34;4946026;29;20031;-69
2023/01/29 05:28:29;;;;;;;10.87;6.60;;;;;;;-0.94;100.00;100498.53;4924292;29;20095;-71
2023/01/29 05:30:56;;;;;;;13.70;7.27;;;;;;;-0.91;100.00;100500.13;4940859;29;20621;-70
2023/01/29 05:33:27;;;;;;;15.50;7.50;;;;;;;-1.04;100.00;100476.53;4940867;29;20042;-70
2023/01/29 05:35:54;;;;;;;11.83;5.70;;;;;;;-0.90;100.00;100493.13;4940774;29;20313;-71
2023/01/29 05:38:21;;;;;;;10.77;7.83;;;;;;;-0.85;100.00;100493.69;4940594;29;20354;-70
2023/01/29 05:40:47;;;;;;;8.97;6.00;;;;;;;-0.84;100.00;100484.91;4940685;29;20267;-70
2023/01/29 05:43:15;;;;;;;7.47;5.67;;;;;;;-1.00;100.00;100453.66;4940809;29;20702;-71
2023/01/29 05:45:41;;;;;;;10.82;6.25;;;;;;;-0.96;100.00;100466.44;4940571;29;20300;-70
2023/01/29 05:48:06;;;;;;;7.90;5.13;;;;;;;-0.79;100.00;100488.06;4940555;29;20067;-71
2023/01/29 05:50:32;;;;;;;8.33;5.93;;;;;;;-0.79;100.00;100486.31;4940503;29;20527;-70
2023/01/29 05:52:59;;;;;;;7.33;6.53;;;;;;;-0.74;100.00;100502.53;4937317;29;20136;-70
2023/01/29 05:55:28;;;;;;;7.57;6.67;;;;;;;-0.71;100.00;100483.19;4937073;29;20135;-71
2023/01/29 05:57:54;;;;;;;11.40;6.97;;;;;;;-0.68;100.00;100483.00;4936224;29;20362;-71
2023/01/29 06:00:20;;;;;;;9.83;6.07;;;;;;;-0.67;100.00;100482.91;4937942;29;20044;-69
2023/01/29 06:02:45;;;;;;;10.50;5.93;;;;;;;-0.72;100.00;100474.50;4937904;29;20268;-70
2023/01/29 06:05:11;;;;;;;11.20;6.40;;;;;;;-0.79;100.00;100469.78;4938187;29;20277;-71
2023/01/29 06:07:38;;;;;;;12.63;6.07;;;;;;;-0.73;100.00;100488.53;4938664;29;20039;-72
2023/01/29 06:10:04;;;;;;;8.17;6.57;;;;;;;-0.70;100.00;100483.09;4937380;29;20078;-71
2023/01/29 06:12:30;;;;;;;8.47;6.33;;;;;;;-0.65;100.00;100495.88;4937355;29;20783;-71
2023/01/29 06:14:55;;;;;;;14.30;6.70;;;;;;;-0.63;100.00;100483.53;4937617;29;20035;-71
2023/01/29 06:17:21;;;;;;;7.30;5.10;;;;;;;-0.64;100.00;100487.09;4937513;29;20123;-70
2023/01/29 06:19:47;;;;;;;12.07;5.87;;;;;;;-0.64;100.00;100481.84;4937629;29;20449;-71
2023/01/29 06:22:12;;;;;;;14.77;6.23;;;;;;;-0.58;100.00;100481.47;4937497;29;20110;-69
2023/01/29 06:24:38;;;;;;;7.63;4.77;;;;;;;-0.55;100.00;100481.28;4919759;29;20040;-70
2023/01/29 06:27:03;;;;;;;9.97;5.13;;;;;;;-0.56;100.00;100469.16;4937407;29;20074;-70
2023/01/29 06:29:29;;;;;;;8.33;4.27;;;;;;;-0.51;100.00;100471.47;4937021;29;20120;-71
2023/01/29 06:31:54;;;;;;;7.13;4.87;;;;;;;-0.44;100.00;100460.50;4936940;29;20043;-71
2023/01/29 06:34:20;;;;;;;8.27;4.00;;;;;;;-0.35;100.00;100483.44;4936844;29;20028;-70
2023/01/29 06:36:45;;;;;;;6.07;4.37;;;;;;;-0.29;100.00;100473.50;4936580;29;20118;-70
2023/01/29 06:39:11;;;;;;;9.33;4.50;;;;;;;-0.26;100.00;100474.16;4936405;29;20023;-71
2023/01/29 06:41:37;;;;;;;10.53;4.50;;;;;;;-0.25;100.00;100472.38;4936871;29;20062;-72
2023/01/29 06:44:02;;;;;;;12.27;4.07;;;;;;;-0.33;100.00;100463.25;4938637;29;20035;-71
2023/01/29 06:46:28;;;;;;;5.63;3.57;;;;;;;-0.26;100.00;100470.72;4936859;29;20035;-70
2023/01/29 06:48:53;;;;;;;11.07;3.47;;;;;;;-0.25;100.00;100475.00;4936991;29;20114;-70
2023/01/29 06:51:20;;;;;;;9.77;4.57;;;;;;;-0.23;100.00;100470.50;4939322;29;20337;-70
2023/01/29 06:53:46;;;;;;;4.13;3.07;;;;;;;-0.20;100.00;100472.91;4921316;29;20124;-71
2023/01/29 06:56:12;;;;;;;4.87;3.43;;;;;;;-0.20;100.00;100468.53;4921490;29;20708;-73
2023/01/29 06:58:38;;;;;;;4.60;4.03;;;;;;;-0.17;100.00;100462.25;4938766;29;20318;-71
2023/01/29 07:01:09;;;;;;;5.50;3.43;;;;;;;-0.16;100.00;100451.66;4939033;29;20028;-72
2023/01/29 07:03:35;;;;;;;10.40;3.07;;;;;;;-0.06;100.00;100467.59;4938588;29;20267;-71
2023/01/29 07:06:01;;;;;;;7.97;3.57;;;;;;;-0.08;100.00;100462.47;4937998;29;20279;-71
2023/01/29 07:08:27;;;;;;;5.33;3.27;;;;;;;-0.04;100.00;100460.47;4936880;29;20388;-70
2023/01/29 07:10:58;;;;;;;8.23;3.20;;;;;;;0.03;100.00;100471.41;4937786;29;20028;-72
2023/01/29 07:13:24;;;;;;;6.97;2.87;;;;;;;0.00;100.00;100459.34;4939275;29;20264;-72
2023/01/29 07:15:49;;;;;;;6.00;2.87;;;;;;;0.04;100.00;100463.44;4940443;29;20290;-75
2023/01/29 07:18:15;;;;;;;5.37;3.60;;;;;;;0.05;100.00;100461.66;4944509;29;20463;-73
2023/01/29 07:20:42;;;;;;;8.03;2.70;;;;;;;0.13;100.00;100467.22;4922163;29;20042;-70
2023/01/29 07:23:10;;;;;;;5.90;2.80;;;;;;;0.09;100.00;100456.13;4937579;29;20343;-73
2023/01/29 07:25:36;;;;;;;5.00;2.60;;;;;;;0.12;100.00;100460.31;4936108;29;20766;-74
2023/01/29 07:28:02;;;;;;;5.97;2.90;;;;;;;0.10;100.00;100465.66;4920465;29;20126;-74
2023/01/29 07:30:29;;;;;;;6.43;3.67;;;;;;;0.17;100.00;100472.13;4939092;29;20456;-73
2023/01/29 07:32:54;;;;;;;6.43;2.60;;;;;;;0.13;100.00;100459.34;4936749;29;20267;-73
2023/01/29 07:35:20;;;;;;;4.63;3.07;;;;;;;0.16;100.00;100456.53;4935858;29;20280;-74
2023/01/29 07:37:49;;;;;;;5.50;2.67;;;;;;;0.20;100.00;100469.31;4935588;29;20046;-74
2023/01/29 07:40:17;;;;;;;7.40;3.33;;;;;;;0.16;100.00;100451.28;4921558;29;20032;-73
2023/01/29 07:42:43;;;;;;;5.20;2.57;;;;;;;0.21;100.00;100455.28;4937487;29;20571;-77
2023/01/29 07:45:09;;;;;;;7.40;2.87;;;;;;;0.22;100.00;100456.94;4935540;29;20082;-73
2023/01/29 07:47:35;;;;;;;5.43;2.70;;;;;;;0.21;100.00;100451.81;4935221;29;20036;-75
2023/01/29 07:50:01;;;;;;;4.60;2.73;;;;;;;0.22;100.00;100459.56;4935208;29;20272;-74
2023/01/29 07:52:30;;;;;;;5.87;3.33;;;;;;;0.28;100.00;100466.16;4935445;29;20275;-76
2023/01/29 07:54:57;;;;;;;4.73;2.90;;;;;;;0.27;100.00;100457.47;4935455;29;20362;-73
2023/01/29 07:57:23;;;;;;;4.17;3.20;;;;;;;0.25;100.00;100463.75;4935567;29;20363;-74
2023/01/29 07:59:48;;;;;;;3.00;2.70;;;;;;;0.20;100.00;100450.97;4935580;29;20497;-75
2023/01/29 08:02:14;;;;;;;6.77;2.70;;;;;;;0.10;100.00;100431.59;4935074;29;20039;-74
2023/01/29 08:04:39;;;;;;;7.60;3.80;;;;;;;0.25;100.00;100448.03;4917861;29;20036;-76
2023/01/29 08:07:05;;;;;;;6.43;2.47;;;;;;;0.23;100.00;100447.31;4918234;29;20028;-74
2023/01/29 08:09:30;;;;;;;6.40;2.93;;;;;;;0.25;100.00;100441.03;4935642;29;20496;-73
2023/01/29 08:11:56;;;;;;;5.43;2.27;;;;;;;0.43;100.00;100454.66;4917425;29;20464;-73
2023/01/29 08:14:22;;;;;;;3.87;2.43;;;;;;;0.44;100.00;100447.63;4934835;29;20054;-76
2023/01/29 08:16:49;;;;;;;8.20;2.23;;;;;;;0.52;100.00;100455.78;4934399;29;20747;-74
2023/01/29 08:19:14;;;;;;;8.87;3.63;;;;;;;0.51;100.00;100443.63;4917718;29;20048;-75
2023/01/29 08:21:40;;;;;;;4.83;2.43;;;;;;;0.52;100.00;100450.56;4934975;29;20274;-74
2023/01/29 08:24:06;;;;;;;4.73;2.30;;;;;;;0.53;100.00;100449.59;4936123;29;20042;-73
2023/01/29 08:26:40;;;;;;;4.67;2.53;;;;;;;0.49;100.00;100437.66;4934074;29;20046;-76
2023/01/29 08:29:06;;;;;;;2.77;2.10;;;;;;;0.50;100.00;100439.34;4917320;29;20071;-74
2023/01/29 08:31:32;;;;;;;7.60;2.70;;;;;;;0.56;100.00;100454.63;4934645;29;20291;-75
2023/01/29 08:33:58;;;;;;;4.30;2.30;;;;;;;0.57;100.00;100437.97;4917522;29;20139;-74
2023/01/29 08:36:24;;;;;;;8.00;3.17;;;;;;;0.76;100.00;100451.47;4934826;29;20311;-76
2023/01/29 08:38:49;;;;;;;4.63;2.37;;;;;;;0.77;100.00;100453.16;4917641;29;20763;-78
2023/01/29 08:41:15;;;;;;;3.83;1.97;;;;;;;0.78;100.00;100453.97;4902142;29;20038;-77
2023/01/29 08:43:40;;;;;;;3.17;2.53;;;;;;;0.72;100.00;100460.50;4935035;29;20035;-78
2023/01/29 08:46:07;;;;;;;4.33;2.40;;;;;;;0.70;100.00;100456.31;4936635;29;20375;-76
2023/01/29 08:48:33;;;;;;;8.20;2.60;;;;;;;0.71;100.00;100464.06;4935440;29;20098;-71
2023/01/29 08:51:01;;;;;;;4.90;2.93;;;;;;;0.42;100.00;100418.09;4934943;29;20306;-71
2023/01/29 08:53:27;;;;;;;10.73;2.53;;;;;;;0.69;100.00;100465.97;4934765;29;20362;-73
2023/01/29 08:56:01;;;;;;;7.03;3.00;;;;;;;0.67;100.00;100460.00;4934475;29;20359;-74
2023/01/29 08:58:27;;;;;;;4.57;2.10;;;;;;;0.76;100.00;100463.75;4931160;29;20282;-71
2023/01/29 09:00:52;;;;;;;6.17;2.63;;;;;;;0.79;100.00;100455.66;4934279;29;20263;-73
2023/01/29 09:03:21;;;;;;;5.00;3.00;;;;;;;0.74;100.00;100445.50;4934325;29;20365;-75
2023/01/29 09:05:50;;;;;;;4.00;2.23;;;;;;;0.78;100.00;100459.22;4900333;29;20535;-72
2023/01/29 09:08:16;;;;;;;3.97;2.67;;;;;;;0.73;100.00;100446.44;4933363;29;20288;-71
2023/01/29 09:14:22;;;;;;;7.60;2.57;;;;;;;0.53;100.00;100410.31;4928498;29;20375;-72
2023/01/29 09:16:47;;;;;;;7.10;3.50;;;;;;;0.79;100.00;100456.50;4916672;29;20264;-71
2023/01/29 09:19:12;;;;;;;6.40;2.33;;;;;;;0.53;100.00;100408.53;4933656;29;20078;-71
2023/01/29 09:21:38;;;;;;;5.37;2.40;;;;;;;0.85;100.00;100442.09;4933592;29;20034;-71
2023/01/29 09:24:25;;;;;;;5.30;2.40;;;;;;;0.88;100.00;100440.13;4933765;29;20066;-71
2023/01/29 09:34:00;;;;;;;6.50;2.93;;;;;;;0.97;100.00;100420.28;4909929;29;20619;-74
2023/01/29 09:36:32;;;;;;;7.93;2.80;;;;;;;0.81;100.00;100385.59;4906164;29;20371;-75
2023/01/29 09:38:58;;;;;;;9.40;3.20;;;;;;;0.98;100.00;100408.84;4939842;29;20276;-75
2023/01/29 09:41:53;;;;;;;12.33;2.70;;;;;;;0.89;100.00;100391.16;4910152;29;20283;-75
2023/01/29 09:44:58;;;;;;;3.87;2.13;;;;;;;1.00;100.00;100414.81;4903731;29;20336;-76
2023/01/29 09:47:27;;;;;;;4.73;2.27;;;;;;;0.95;100.00;100418.72;4933128;29;20295;-77
2023/01/29 09:53:55;;;;;;;5.20;2.73;;;;;;;1.03;99.78;100390.16;4888128;29;19958;-76
2023/01/29 09:56:27;;;;;;;3.43;2.77;;;;;;;1.22;98.84;100398.38;4929807;29;20319;-75
2023/01/29 09:59:33;;;;;;;4.07;2.13;;;;;;;1.39;98.10;100392.72;4938190;29;20311;-76
2023/01/29 10:02:20;;;;;;;5.43;2.13;;;;;;;1.59;97.33;100387.78;4909006;29;20649;-78
2023/01/29 10:05:13;;;;;;;3.77;1.70;;;;;;;1.22;96.96;100359.88;4921825;29;20279;-76
2023/01/29 10:08:10;;;;;;;4.30;2.03;;;;;;;1.29;97.23;100396.97;4903002;29;20636;-77
2023/01/29 10:25:52;;;;;;;5.87;2.53;;;;;;;0.99;97.32;100372.97;4882441;29;20645;-76
2023/01/29 10:28:42;;;;;;;4.20;2.60;;;;;;;1.20;97.32;100395.03;4896787;29;20309;-76
2023/01/29 10:31:19;;;;;;;3.60;2.00;;;;;;;1.21;97.13;100404.56;4880637;29;20261;-75
2023/01/29 10:34:04;;;;;;;6.40;2.43;;;;;;;1.23;96.95;100402.66;4898576;29;20269;-79
2023/01/29 10:36:50;;;;;;;15.13;11.10;;;;;;;1.22;97.05;100390.50;4937178;29;20660;-77
2023/01/29 10:39:41;;;;;;;3.90;1.93;;;;;;;1.34;96.55;100407.97;4916615;29;20371;-82
2023/01/29 10:42:34;;;;;;;5.97;2.70;;;;;;;1.43;95.95;100409.91;4887524;29;20280;-75
2023/01/29 10:45:26;;;;;;;3.97;2.07;;;;;;;1.32;94.95;100402.00;4923697;29;20271;-76
2023/01/29 10:48:03;;;;;;;4.17;2.60;;;;;;;1.30;95.88;100403.88;4907246;29;20291;-79
2023/01/29 10:51:07;;;;;;;4.03;2.10;;;;;;;1.35;95.70;100396.50;4939597;29;20300;-75
2023/01/29 11:10:22;;;;;;;4.33;2.40;;;;;;;1.29;95.26;100375.97;4861408;29;20365;-78
2023/01/29 11:12:56;;;;;;;11.10;2.00;;;;;;;1.22;95.37;100375.59;4844995;29;20392;-76
2023/01/29 11:15:30;;;;;;;6.33;3.37;;;;;;;0.91;96.17;100332.44;4861328;29;20610;-76
2023/01/29 11:18:12;;;;;;;5.27;2.50;;;;;;;0.84;95.89;100304.94;4897416;29;20272;-76
2023/01/29 11:21:14;;;;;;;4.17;2.40;;;;;;;1.22;95.53;100364.28;4889072;29;20659;-76
2023/01/29 11:23:45;;;;;;;11.60;3.90;;;;;;;1.20;95.28;100350.44;4896183;29;20442;-75
2023/01/29 11:26:25;;;;;;;2.20;2.00;;;;;;;0.86;95.24;100304.84;4881122;29;20288;-76
2023/01/29 11:28:59;;;;;;;2.17;1.97;;;;;;;0.92;95.87;100307.88;4889379;29;20282;-73
2023/01/29 11:35:51;;;;;;;7.00;2.27;;;;;;;1.16;95.50;100333.25;4913857;29;20306;-78
2023/01/29 11:38:32;;;;;;;3.40;2.13;;;;;;;1.05;95.51;100312.22;4921246;29;20279;-78
2023/01/29 11:41:41;;;;;;;4.13;2.47;;;;;;;1.21;95.78;100320.63;4942318;29;20740;-81
2023/01/29 11:44:25;;;;;;;;;;;;;;;1.12;95.02;100319.50;4920367;29;20267;-76
2023/01/29 11:46:51;;;;;;;3.00;2.30;;;;;;;1.02;95.15;100320.31;4920382;29;19917;-73
2023/01/29 11:49:28;;;;;;;3.57;2.13;;;;;;;1.00;95.32;100322.19;4936675;29;20268;-73
2023/01/29 11:51:57;;;;;;;5.13;2.63;;;;;;;0.88;95.59;100316.91;4918514;29;20024;-72
2023/01/29 11:57:28;;;;;;;5.00;2.90;;;;;;;0.81;95.94;100296.47;4938701;29;19921;-74
2023/01/29 12:00:06;;;;;;;4.87;2.60;;;;;;;0.81;96.13;100318.28;4936053;29;20631;-75
2023/01/29 12:06:40;;;;;;;4.03;2.37;;;;;;;0.60;96.88;100317.22;4907108;29;20279;-74
2023/01/29 12:09:20;;;;;;;4.63;2.27;;;;;;;0.29;96.94;100274.88;4919777;29;20272;-75
2023/01/29 12:11:52;;;;;;;5.13;3.00;;;;;;;0.50;97.54;100313.56;4935497;29;20260;-76
2023/01/29 12:14:33;;;;;;;6.20;2.67;;;;;;;0.44;97.84;100304.38;4903717;29;20354;-76
2023/01/29 12:17:24;;;;;;;3.27;2.80;;;;;;;0.55;97.85;100316.69;4935328;29;20282;-76
2023/01/29 12:19:58;;;;;;;4.50;2.70;;;;;;;0.41;97.27;100288.88;4935665;29;20282;-77
2023/01/29 12:22:56;;;;;;;7.10;2.90;;;;;;;0.49;97.87;100306.66;4935528;29;20327;-76
2023/01/29 12:25:48;;;;;;;4.30;3.03;;;;;;;0.48;97.32;100311.06;4917846;29;20275;-72
2023/01/29 12:28:33;;;;;;;4.43;3.20;;;;;;;0.58;97.17;100319.13;4922164;29;20095;-79
2023/01/29 12:31:21;;;;;;;4.73;3.07;;;;;;;0.59;97.35;100320.81;4934937;29;20810;-76
2023/01/29 12:34:27;;;;;;;4.90;2.67;;;;;;;0.67;96.84;100325.50;4934122;29;20283;-80
2023/01/29 12:44:33;;;;;;;8.13;3.43;;;;;;;0.62;96.73;100302.25;4928532;29;20263;-79
2023/01/29 12:47:01;;;;;;;5.20;3.10;;;;;;;0.55;97.33;100306.22;4934805;29;20314;-78
2023/01/29 12:49:31;;;;;;;5.78;3.22;;;;;;;0.50;97.59;100297.84;4917256;29;20279;-73
2023/01/29 12:52:31;;;;;;;5.80;3.10;;;;;;;0.65;97.55;100302.00;4938376;29;20499;-72
2023/01/29 12:55:08;;;;;;;5.17;2.57;;;;;;;0.66;97.12;100295.00;4904443;29;20267;-74
2023/01/29 12:57:42;;;;;;;6.57;2.97;;;;;;;0.56;96.90;100298.25;4934416;29;20445;-73
2023/01/29 13:00:36;;;;;;;;;;;;;;;0.49;97.84;100301.44;4933745;29;20282;-73
2023/01/29 13:03:30;;;;;;;10.93;3.80;;;;;;;0.41;98.52;100277.56;4937690;29;19941;-71
2023/01/29 13:06:08;;;;;;;5.43;3.30;;;;;;;0.38;98.73;100275.16;4901955;29;20759;-73
2023/01/29 13:08:36;;;;;;;7.40;3.63;;;;;;;0.30;98.70;100270.47;4937412;29;20347;-74
2023/01/29 13:11:08;;;;;;;5.22;4.43;;;;;;;0.24;98.96;100263.88;4935388;29;20267;-74
2023/01/29 13:14:24;;;;;;;6.10;3.90;;;;;;;0.24;99.32;100263.88;4937958;29;20031;-71
2023/01/29 13:17:02;;;;;;;6.50;3.80;;;;;;;0.29;99.53;100271.44;4859593;29;20330;-72
2023/01/29 13:19:37;;;;;;;4.43;4.00;;;;;;;0.27;99.74;100266.28;4917944;29;20268;-72
2023/01/29 13:22:18;;;;;;;13.13;7.53;;;;;;;0.24;99.87;100255.19;4925380;29;20122;-71
2023/01/29 13:24:44;;;;;;;10.77;5.67;;;;;;;0.36;99.82;100253.50;4932595;29;20406;-72